createdAt,value
2023-05-02T00:02:03.299Z,52.07
2023-05-02T00:05:07.539Z,54.53
2023-05-02T00:08:09.839Z,51.31
2023-05-02T00:11:12.776Z,52.42
2023-05-02T00:14:15.062Z,52.83
2023-05-02T00:17:18.771Z,52.31
2023-05-02T00:20:21.035Z,49.83
2023-05-02T00:23:24.158Z,50.76
2023-05-02T00:26:27.568Z,50.39
2023-05-02T00:29:30.646Z,50.47
2023-05-02T00:32:33.395Z,50.62
2023-05-02T00:35:35.814Z,50.05
2023-05-02T00:38:38.236Z,51.96
2023-05-02T00:41:40.724Z,50.74
2023-05-02T00:44:43.185Z,49.15
2023-05-02T00:47:45.922Z,50.20
2023-05-02T00:50:48.173Z,50.22
2023-05-02T00:53:51.084Z,50.90
2023-05-02T00:56:53.180Z,50.97
2023-05-02T00:59:57.034Z,50.72
2023-05-02T01:03:09.112Z,51.98
2023-05-02T01:06:16.973Z,51.36
2023-05-02T01:09:55.961Z,51.94
2023-05-02T01:13:16.918Z,52.81
2023-05-02T01:16:20.456Z,52.08
2023-05-02T01:19:26.977Z,52.25
2023-05-02T01:22:32.994Z,52.25
2023-05-02T01:25:44.726Z,51.88
2023-05-02T01:28:58.591Z,51.93
2023-05-02T01:32:03.250Z,52.01
2023-05-02T01:35:06.935Z,52.29
2023-05-02T01:38:10.244Z,51.96
2023-05-02T01:41:13.140Z,52.85
2023-05-02T01:44:17.318Z,52.00
2023-05-02T01:47:19.973Z,52.33
2023-05-02T01:50:24.859Z,52.41
2023-05-02T01:53:28.762Z,53.05
2023-05-02T01:56:32.848Z,52.64
2023-05-02T01:59:35.701Z,53.37
2023-05-02T02:02:41.093Z,53.52
2023-05-02T02:05:44.425Z,54.13
2023-05-02T02:08:46.967Z,54.61
2023-05-02T02:11:52.719Z,53.81
2023-05-02T02:15:09.055Z,54.54
2023-05-02T02:18:13.773Z,54.70
2023-05-02T02:21:18.366Z,54.51
2023-05-02T02:24:21.957Z,55.16
2023-05-02T02:27:24.626Z,54.85
2023-05-02T02:30:26.768Z,54.82
2023-05-02T02:33:30.640Z,55.68
2023-05-02T02:36:40.699Z,55.72
2023-05-02T02:39:54.358Z,55.53
2023-05-02T02:43:12.852Z,55.19
2023-05-02T02:46:18.956Z,55.92
2023-05-02T02:49:31.977Z,55.78
2023-05-02T02:52:37.655Z,55.38
2023-05-02T02:56:12.644Z,55.19
2023-05-02T02:59:28.856Z,55.68
2023-05-02T03:02:32.203Z,56.36
2023-05-02T03:05:35.063Z,56.97
2023-05-02T03:08:41.353Z,56.75
2023-05-02T03:11:46.197Z,55.99
2023-05-02T03:14:48.819Z,55.08
2023-05-02T03:17:52.497Z,55.76
2023-05-02T03:20:54.734Z,55.48
2023-05-02T03:24:01.135Z,55.49
2023-05-02T03:27:04.639Z,54.37
2023-05-02T03:30:08.466Z,54.84
2023-05-02T03:33:11.167Z,55.01
2023-05-02T03:36:14.789Z,54.80
2023-05-02T03:39:17.307Z,54.52
2023-05-02T03:42:21.696Z,56.44
2023-05-02T03:45:23.771Z,55.66
2023-05-02T03:48:28.068Z,54.79
2023-05-02T03:51:32.300Z,55.02
2023-05-02T03:54:38.046Z,55.18
2023-05-02T03:57:40.606Z,56.35
2023-05-02T04:00:44.063Z,56.45
2023-05-02T04:03:47.150Z,56.92
2023-05-02T04:06:50.584Z,56.09
2023-05-02T04:09:53.251Z,56.89
2023-05-02T04:12:55.672Z,54.65
2023-05-02T04:15:59.041Z,55.63
2023-05-02T04:19:03.306Z,55.23
2023-05-02T04:22:06.637Z,55.29
2023-05-02T04:25:12.582Z,54.09
2023-05-02T04:28:15.652Z,54.41
2023-05-02T04:31:19.220Z,50.71
2023-05-02T04:34:22.767Z,48.25
2023-05-02T04:37:25.844Z,46.92
2023-05-02T04:40:29.360Z,45.39
2023-05-02T04:43:33.789Z,44.79
2023-05-02T04:46:36.862Z,45.84
2023-05-02T04:53:11.660Z,45.44
2023-05-02T04:56:14.157Z,44.46
2023-05-02T04:59:17.464Z,42.14
2023-05-02T05:02:20.287Z,40.22
2023-05-02T05:05:23.837Z,37.76
2023-05-02T05:08:30.784Z,35.82
2023-05-02T05:11:34.682Z,35.09
2023-05-02T05:14:37.839Z,34.20
2023-05-02T05:17:43.850Z,34.36
2023-05-02T05:20:48.664Z,31.95
2023-05-02T05:23:52.294Z,33.61
2023-05-02T05:26:58.719Z,31.71
2023-05-02T05:30:02.722Z,31.64
2023-05-02T05:33:05.745Z,31.37
2023-05-02T05:36:09.063Z,31.21
2023-05-02T05:39:11.359Z,32.59
2023-05-02T05:42:16.548Z,33.63
2023-05-02T05:45:21.070Z,31.96
2023-05-02T05:48:23.834Z,31.00
2023-05-02T05:51:27.823Z,30.73
2023-05-02T05:54:32.405Z,29.22
2023-05-02T05:57:35.106Z,29.06
2023-05-02T06:00:38.338Z,28.42
2023-05-02T06:03:41.100Z,29.51
2023-05-02T06:06:43.458Z,28.91
2023-05-02T06:09:46.169Z,28.80
2023-05-02T06:12:49.364Z,27.53
2023-05-02T06:15:52.845Z,27.59
2023-05-02T06:18:55.332Z,27.07
2023-05-02T06:21:57.672Z,25.94
2023-05-02T06:25:00.131Z,27.54
2023-05-02T06:28:02.390Z,26.61
2023-05-02T06:31:06.007Z,28.04
2023-05-02T06:34:08.452Z,27.44
2023-05-02T06:37:10.951Z,27.69
2023-05-02T06:40:13.836Z,26.59
2023-05-02T06:43:16.162Z,26.91
2023-05-02T06:46:20.911Z,26.07
2023-05-02T06:49:23.464Z,26.24
2023-05-02T06:52:25.968Z,25.12
2023-05-02T06:55:28.337Z,25.21
2023-05-02T06:58:30.963Z,24.95
2023-05-02T07:01:33.079Z,24.73
2023-05-02T07:04:35.703Z,25.32
2023-05-02T07:07:37.728Z,24.93
2023-05-02T07:10:39.990Z,25.05
2023-05-02T07:13:41.954Z,23.40
2023-05-02T07:16:44.331Z,23.20
2023-05-02T07:19:46.306Z,25.33
2023-05-02T07:22:48.527Z,26.79
2023-05-02T07:25:50.513Z,27.42
2023-05-02T07:28:52.818Z,26.94
2023-05-02T07:31:54.944Z,28.79
2023-05-02T07:34:57.357Z,27.96
2023-05-02T07:37:59.358Z,27.13
2023-05-02T07:41:01.645Z,26.48
2023-05-02T07:44:03.802Z,28.84
2023-05-02T07:47:06.569Z,27.52
2023-05-02T07:50:09.161Z,28.15
2023-05-02T07:53:11.601Z,27.75
2023-05-02T07:56:13.605Z,28.87
2023-05-02T07:59:16.015Z,30.39
2023-05-02T08:02:20.209Z,30.60
2023-05-02T08:05:22.920Z,31.14
2023-05-02T08:08:25.277Z,32.94
2023-05-02T08:11:27.791Z,33.97
2023-05-02T08:14:30.279Z,35.42
2023-05-02T08:17:32.693Z,34.88
2023-05-02T08:20:35.018Z,36.78
2023-05-02T08:23:40.416Z,36.45
2023-05-02T08:26:42.450Z,37.56
2023-05-02T08:29:44.759Z,37.58
2023-05-02T08:32:47.368Z,36.53
2023-05-02T08:35:49.757Z,37.56
2023-05-02T08:38:51.838Z,37.74
2023-05-02T08:41:54.256Z,37.98
2023-05-02T08:44:57.639Z,36.69
2023-05-02T08:48:00.335Z,36.75
2023-05-02T08:51:02.855Z,36.08
2023-05-02T08:54:07.558Z,36.92
2023-05-02T08:57:10.166Z,37.45
2023-05-02T09:00:12.858Z,37.64
2023-05-02T09:03:17.656Z,35.79
2023-05-02T09:06:23.097Z,36.58
2023-05-02T09:09:27.055Z,35.98
2023-05-02T09:12:32.134Z,37.67
2023-05-02T09:15:34.102Z,38.05
2023-05-02T09:18:46.795Z,36.22
2023-05-02T09:21:48.824Z,36.55
2023-05-02T09:24:54.864Z,34.59
2023-05-02T09:27:56.957Z,35.08
2023-05-02T09:31:09.938Z,35.12
2023-05-02T09:34:13.161Z,35.64
2023-05-02T09:37:33.844Z,35.23
2023-05-02T09:40:37.877Z,34.84
2023-05-02T09:43:40.808Z,35.75
2023-05-02T09:46:43.861Z,35.69
2023-05-02T09:49:46.652Z,37.43
2023-05-02T09:53:09.853Z,37.49
2023-05-02T09:56:14.196Z,37.47
2023-05-02T09:59:19.600Z,34.84
2023-05-02T10:02:22.491Z,34.90
2023-05-02T10:05:25.748Z,34.62
2023-05-02T10:08:28.635Z,35.63
2023-05-02T10:11:32.325Z,36.99
2023-05-02T10:14:39.319Z,36.13
2023-05-02T10:17:46.532Z,36.58
2023-05-02T10:20:55.796Z,37.64
2023-05-02T10:23:59.250Z,37.15
2023-05-02T10:27:03.974Z,36.39
2023-05-02T10:30:07.924Z,36.75
2023-05-02T10:33:10.933Z,36.60
2023-05-02T10:36:13.288Z,37.54
2023-05-02T10:39:15.991Z,38.31
2023-05-02T10:42:20.089Z,35.61
2023-05-02T10:45:32.376Z,36.33
2023-05-02T10:48:34.643Z,35.80
2023-05-02T10:51:38.661Z,37.62
2023-05-02T10:54:42.010Z,35.97
2023-05-02T10:58:10.565Z,35.92
2023-05-02T11:01:26.980Z,36.46
2023-05-02T11:05:08.233Z,36.54
2023-05-02T11:08:21.245Z,36.22
2023-05-02T11:11:42.644Z,37.24
2023-05-02T11:14:47.310Z,36.40
2023-05-02T11:18:09.902Z,38.70
2023-05-02T11:21:28.909Z,36.94
2023-05-02T11:24:40.879Z,36.60
2023-05-02T11:27:45.688Z,37.53
2023-05-02T11:30:48.679Z,36.09
2023-05-02T11:34:01.043Z,35.24
2023-05-02T11:37:10.868Z,37.05
2023-05-02T11:40:13.898Z,38.11
2023-05-02T11:43:16.902Z,39.06
2023-05-02T11:46:21.136Z,36.43
2023-05-02T11:49:23.330Z,37.45
2023-05-02T11:52:26.092Z,37.47
2023-05-02T11:55:28.182Z,38.78
2023-05-02T11:58:32.879Z,37.87
2023-05-02T12:01:35.120Z,36.05
2023-05-02T12:04:42.625Z,34.45
2023-05-02T12:07:46.250Z,34.34
2023-05-02T12:10:49.556Z,33.51
2023-05-02T12:13:51.872Z,32.80
2023-05-02T12:16:55.227Z,33.17
2023-05-02T12:19:57.862Z,33.46
2023-05-02T12:23:00.489Z,34.47
2023-05-02T12:26:16.391Z,31.68
2023-05-02T12:29:18.693Z,33.08
2023-05-02T12:32:28.102Z,31.58
2023-05-02T12:35:31.344Z,32.23
2023-05-02T12:38:33.947Z,31.15
2023-05-02T12:41:37.474Z,31.34
2023-05-02T12:44:40.823Z,32.44
2023-05-02T12:47:46.576Z,32.56
2023-05-02T12:50:49.416Z,31.71
2023-05-02T12:53:52.140Z,31.99
2023-05-02T12:56:54.247Z,32.32
2023-05-02T12:59:56.789Z,34.07
2023-05-02T13:02:59.082Z,33.51
2023-05-02T13:06:01.592Z,34.23
2023-05-02T13:09:04.870Z,33.38
2023-05-02T13:12:07.996Z,33.24
2023-05-02T13:15:10.307Z,33.22
2023-05-02T13:18:12.794Z,32.79
2023-05-02T13:21:14.801Z,33.36
2023-05-02T13:24:17.536Z,34.09
2023-05-02T13:27:19.721Z,34.80
2023-05-02T13:30:22.060Z,35.22
2023-05-02T13:33:24.070Z,35.43
2023-05-02T13:36:26.974Z,34.50
2023-05-02T13:39:28.955Z,32.98
2023-05-02T13:42:31.177Z,33.74
2023-05-02T13:45:33.200Z,33.98
2023-05-02T13:48:37.319Z,33.78
2023-05-02T13:51:39.336Z,34.66
2023-05-02T13:54:41.639Z,33.92
2023-05-02T13:57:43.721Z,34.30
2023-05-02T14:00:47.308Z,33.82
2023-05-02T14:03:49.969Z,34.24
2023-05-02T14:06:52.142Z,33.72
2023-05-02T14:09:54.817Z,33.14
2023-05-02T14:12:56.739Z,33.41
2023-05-02T14:15:59.327Z,34.23
2023-05-02T14:19:01.399Z,33.57
2023-05-02T14:22:05.608Z,33.84
2023-05-02T14:25:08.229Z,34.90
2023-05-02T14:28:10.540Z,34.41
2023-05-02T14:31:12.746Z,34.85
2023-05-02T14:34:15.219Z,34.61
2023-05-02T14:37:17.156Z,34.29
2023-05-02T14:40:19.391Z,34.45
2023-05-02T14:43:21.496Z,35.20
2023-05-02T14:46:23.957Z,34.18
2023-05-02T14:49:26.960Z,35.27
2023-05-02T14:52:29.204Z,35.21
2023-05-02T14:55:35.641Z,35.16
2023-05-02T14:58:38.561Z,36.09
2023-05-02T15:01:40.794Z,35.49
2023-05-02T15:04:43.391Z,35.17
2023-05-02T15:07:45.457Z,35.54
2023-05-02T15:10:47.788Z,35.93
2023-05-02T15:13:49.881Z,35.60
2023-05-02T15:16:52.189Z,37.21
2023-05-02T15:19:55.849Z,38.13
2023-05-02T15:23:03.293Z,39.02
2023-05-02T15:26:05.585Z,38.60
2023-05-02T15:29:07.943Z,38.37
2023-05-02T15:32:10.031Z,38.36
2023-05-02T15:35:12.494Z,38.92
2023-05-02T15:38:14.544Z,38.53
2023-05-02T15:41:16.919Z,38.62
2023-05-02T15:44:19.255Z,37.57
2023-05-02T15:47:22.370Z,37.98
2023-05-02T15:50:25.622Z,36.33
2023-05-02T15:53:28.485Z,38.32
2023-05-02T15:56:32.256Z,36.81
2023-05-02T15:59:34.966Z,38.20
2023-05-02T16:02:38.021Z,37.15
2023-05-02T16:05:40.348Z,37.91
2023-05-02T16:08:42.287Z,37.33
2023-05-02T16:11:44.715Z,37.12
2023-05-02T16:14:46.947Z,38.15
2023-05-02T16:17:49.919Z,38.95
2023-05-02T16:20:52.797Z,40.67
2023-05-02T16:23:55.313Z,41.23
2023-05-02T16:26:57.355Z,42.20
2023-05-02T16:30:00.151Z,43.41
2023-05-02T16:33:03.347Z,44.45
2023-05-02T16:36:06.407Z,45.14
2023-05-02T16:39:08.540Z,45.98
2023-05-02T16:42:10.832Z,46.63
2023-05-02T16:45:12.901Z,47.18
2023-05-02T16:48:15.560Z,47.70
2023-05-02T16:51:17.543Z,48.42
2023-05-02T16:54:19.850Z,48.99
2023-05-02T16:57:22.176Z,48.97
2023-05-02T17:00:24.568Z,49.71
2023-05-02T17:03:26.957Z,50.95
2023-05-02T17:06:29.338Z,55.04
2023-05-02T17:09:31.595Z,54.19
2023-05-02T17:12:33.947Z,57.21
2023-05-02T17:15:38.422Z,54.21
2023-05-02T17:18:40.890Z,58.08
2023-05-02T17:21:42.906Z,57.91
2023-05-02T17:24:48.315Z,57.41
2023-05-02T17:27:50.693Z,54.99
2023-05-02T17:30:54.715Z,55.20
2023-05-02T17:33:56.837Z,55.32
2023-05-02T17:36:59.182Z,55.86
2023-05-02T17:40:02.267Z,55.96
2023-05-02T17:43:05.684Z,54.85
2023-05-02T17:46:09.136Z,55.40
2023-05-02T17:49:11.666Z,55.25
2023-05-02T17:52:13.612Z,55.68
2023-05-02T17:55:18.377Z,55.65
2023-05-02T17:58:21.240Z,56.42
2023-05-02T18:01:23.607Z,57.45
2023-05-02T18:04:26.103Z,57.06
2023-05-02T18:07:29.928Z,57.98
2023-05-02T18:10:35.900Z,58.26
2023-05-02T18:13:39.604Z,58.41
2023-05-02T18:16:46.940Z,58.46
2023-05-02T18:19:50.275Z,59.14
2023-05-02T18:22:52.593Z,58.94
2023-05-02T18:25:55.673Z,59.48
2023-05-02T18:28:57.939Z,59.41
2023-05-02T18:32:00.015Z,61.36
2023-05-02T18:35:04.028Z,61.33
2023-05-02T18:38:06.695Z,61.63
2023-05-02T18:41:09.360Z,62.46
2023-05-02T18:44:12.006Z,63.45
2023-05-02T18:47:16.575Z,67.32
2023-05-02T18:50:18.631Z,68.29
2023-05-02T18:53:22.790Z,68.06
2023-05-02T18:56:25.467Z,69.91
2023-05-02T18:59:27.791Z,69.46
2023-05-02T19:02:29.771Z,70.77
2023-05-02T19:05:34.689Z,71.97
2023-05-02T19:08:36.740Z,74.72
2023-05-02T19:11:39.387Z,74.70
2023-05-02T19:14:42.076Z,74.67
2023-05-02T19:17:44.963Z,76.01
2023-05-02T19:20:46.973Z,80.95
2023-05-02T19:23:49.719Z,82.91
2023-05-02T19:26:51.694Z,85.98
2023-05-02T19:29:54.778Z,86.12
2023-05-02T19:32:56.785Z,92.36
2023-05-02T19:35:59.180Z,91.45
2023-05-02T19:39:01.423Z,92.07
2023-05-02T19:42:04.222Z,92.36
2023-05-02T19:45:06.749Z,94.01
2023-05-02T19:48:09.069Z,94.17
2023-05-02T19:51:11.126Z,100.00
2023-05-02T19:54:13.504Z,100.00
2023-05-02T19:57:17.772Z,96.72
2023-05-02T20:00:20.213Z,99.39
2023-05-02T20:03:25.516Z,100.00
2023-05-02T20:06:28.511Z,100.00
2023-05-02T20:09:30.922Z,100.00
2023-05-02T20:12:32.904Z,100.00
2023-05-02T20:15:35.422Z,100.00
2023-05-02T20:18:37.372Z,100.00
2023-05-02T20:21:40.340Z,100.00
2023-05-02T20:24:42.277Z,100.00
2023-05-02T20:27:44.550Z,100.00
2023-05-02T20:30:46.723Z,100.00
2023-05-02T20:33:49.120Z,100.00
2023-05-02T20:36:52.552Z,100.00
2023-05-02T20:39:55.305Z,100.00
2023-05-02T20:43:01.849Z,100.00
2023-05-02T20:46:11.962Z,100.00
2023-05-02T20:49:14.250Z,100.00
2023-05-02T20:52:16.528Z,100.00
2023-05-02T20:55:18.724Z,100.00
2023-05-02T20:58:24.194Z,100.00
2023-05-02T21:01:26.757Z,100.00
2023-05-02T21:04:29.188Z,100.00
2023-05-02T21:07:31.407Z,100.00
2023-05-02T21:10:36.523Z,100.00
2023-05-02T21:13:38.582Z,100.00
2023-05-02T21:16:40.874Z,100.00
2023-05-02T21:19:42.864Z,100.00
2023-05-02T21:22:45.152Z,100.00
2023-05-02T21:25:47.296Z,100.00
2023-05-02T21:28:49.695Z,100.00
2023-05-02T21:31:54.032Z,100.00
2023-05-02T21:34:57.207Z,100.00
2023-05-02T21:37:59.274Z,100.00
2023-05-02T21:41:03.008Z,100.00
2023-05-02T21:44:04.993Z,100.00
2023-05-02T21:47:07.308Z,100.00
2023-05-02T21:50:09.457Z,100.00
2023-05-02T21:53:12.304Z,100.00
2023-05-02T21:56:14.450Z,100.00
2023-05-02T21:59:16.696Z,100.00
2023-05-02T22:02:18.756Z,100.00
2023-05-02T22:05:21.629Z,100.00
2023-05-02T22:08:24.184Z,100.00
2023-05-02T22:11:28.279Z,100.00
2023-05-02T22:14:41.767Z,100.00
2023-05-02T22:17:46.520Z,100.00
2023-05-02T22:20:50.899Z,100.00
2023-05-02T22:23:53.268Z,100.00
2023-05-02T22:26:56.241Z,100.00
2023-05-02T22:29:58.620Z,100.00
2023-05-02T22:33:01.560Z,100.00
2023-05-02T22:36:04.073Z,100.00
2023-05-02T22:39:11.959Z,100.00
2023-05-02T22:42:14.244Z,100.00
2023-05-02T22:45:16.482Z,100.00
2023-05-02T22:48:18.825Z,100.00
2023-05-02T22:51:20.753Z,100.00
2023-05-02T22:54:23.017Z,100.00
2023-05-02T22:57:25.144Z,100.00
2023-05-02T23:00:27.380Z,100.00
2023-05-02T23:03:29.483Z,100.00
2023-05-02T23:06:31.869Z,100.00
2023-05-02T23:09:33.893Z,100.00
2023-05-02T23:12:36.154Z,100.00
2023-05-02T23:15:38.187Z,100.00
2023-05-02T23:18:40.657Z,100.00
2023-05-02T23:21:42.779Z,100.00
2023-05-02T23:24:48.351Z,100.00
2023-05-02T23:27:50.606Z,100.00
2023-05-02T23:30:53.628Z,100.00
2023-05-02T23:33:55.955Z,100.00
2023-05-02T23:36:58.307Z,100.00
2023-05-02T23:40:00.992Z,100.00
2023-05-02T23:43:03.668Z,100.00
2023-05-02T23:46:06.325Z,100.00
2023-05-02T23:49:08.727Z,100.00
2023-05-02T23:52:10.800Z,100.00
2023-05-02T23:55:13.037Z,100.00
2023-05-02T23:58:15.075Z,100.00
